sensor_id;sensor_type;location;lat;lon;timestamp;P1;durP1;ratioP1;P2;durP2;ratioP2
18265;SDS011;9259;48.194;16.322;2023-02-25T00:01:54;7.67;;;1.67;;
18265;SDS011;9259;48.194;16.322;2023-02-25T00:04:22;11.53;;;2.00;;
18265;SDS011;9259;48.194;16.322;2023-02-25T00:06:53;4.93;;;1.17;;
18265;SDS011;9259;48.194;16.322;2023-02-25T00:09:21;8.17;;;1.43;;
18265;SDS011;9259;48.194;16.322;2023-02-25T00:11:49;5.10;;;1.03;;
18265;SDS011;9259;48.194;16.322;2023-02-25T00:14:17;6.13;;;1.30;;
18265;SDS011;9259;48.194;16.322;2023-02-25T00:16:45;6.33;;;1.50;;
18265;SDS011;9259;48.194;16.322;2023-02-25T00:19:17;9.47;;;1.90;;
18265;SDS011;9259;48.194;16.322;2023-02-25T00:21:44;11.50;;;1.70;;
18265;SDS011;9259;48.194;16.322;2023-02-25T00:24:13;6.80;;;1.50;;
18265;SDS011;9259;48.194;16.322;2023-02-25T00:26:41;5.37;;;1.70;;
18265;SDS011;9259;48.194;16.322;2023-02-25T00:29:09;6.60;;;2.00;;
18265;SDS011;9259;48.194;16.322;2023-02-25T00:31:36;5.80;;;1.57;;
18265;SDS011;9259;48.194;16.322;2023-02-25T00:34:04;3.37;;;1.30;;
18265;SDS011;9259;48.194;16.322;2023-02-25T00:36:34;5.93;;;1.33;;
18265;SDS011;9259;48.194;16.322;2023-02-25T00:39:02;5.97;;;1.53;;
18265;SDS011;9259;48.194;16.322;2023-02-25T00:41:30;5.03;;;1.37;;
18265;SDS011;9259;48.194;16.322;2023-02-25T00:43:59;3.37;;;1.30;;
18265;SDS011;9259;48.194;16.322;2023-02-25T00:46:28;6.83;;;1.47;;
18265;SDS011;9259;48.194;16.322;2023-02-25T00:48:57;6.47;;;1.30;;
18265;SDS011;9259;48.194;16.322;2023-02-25T00:51:26;8.43;;;1.60;;
18265;SDS011;9259;48.194;16.322;2023-02-25T00:53:58;3.90;;;1.33;;
18265;SDS011;9259;48.194;16.322;2023-02-25T00:56:26;3.17;;;1.20;;
18265;SDS011;9259;48.194;16.322;2023-02-25T00:58:54;7.87;;;1.47;;
18265;SDS011;9259;48.194;16.322;2023-02-25T01:01:23;4.43;;;1.30;;
18265;SDS011;9259;48.194;16.322;2023-02-25T01:03:53;7.90;;;1.47;;
18265;SDS011;9259;48.194;16.322;2023-02-25T01:06:23;3.40;;;1.07;;
18265;SDS011;9259;48.194;16.322;2023-02-25T01:08:52;3.87;;;1.67;;
18265;SDS011;9259;48.194;16.322;2023-02-25T01:11:22;7.23;;;1.30;;
18265;SDS011;9259;48.194;16.322;2023-02-25T01:13:54;2.90;;;1.40;;
18265;SDS011;9259;48.194;16.322;2023-02-25T01:16:24;4.00;;;1.17;;
18265;SDS011;9259;48.194;16.322;2023-02-25T01:18:55;4.67;;;1.47;;
18265;SDS011;9259;48.194;16.322;2023-02-25T01:21:27;4.53;;;1.60;;
18265;SDS011;9259;48.194;16.322;2023-02-25T01:23:58;5.37;;;1.83;;
18265;SDS011;9259;48.194;16.322;2023-02-25T01:26:30;4.83;;;2.00;;
18265;SDS011;9259;48.194;16.322;2023-02-25T01:29:04;3.50;;;1.90;;
18265;SDS011;9259;48.194;16.322;2023-02-25T01:31:33;7.77;;;2.00;;
18265;SDS011;9259;48.194;16.322;2023-02-25T01:34:05;6.67;;;2.17;;
18265;SDS011;9259;48.194;16.322;2023-02-25T01:36:34;6.20;;;2.70;;
18265;SDS011;9259;48.194;16.322;2023-02-25T01:39:02;5.90;;;2.43;;
18265;SDS011;9259;48.194;16.322;2023-02-25T01:41:34;3.37;;;1.90;;
18265;SDS011;9259;48.194;16.322;2023-02-25T01:44:04;6.07;;;2.60;;
18265;SDS011;9259;48.194;16.322;2023-02-25T01:46:36;8.40;;;2.63;;
18265;SDS011;9259;48.194;16.322;2023-02-25T01:49:06;6.30;;;2.30;;
18265;SDS011;9259;48.194;16.322;2023-02-25T01:51:38;6.50;;;2.60;;
18265;SDS011;9259;48.194;16.322;2023-02-25T01:54:07;5.60;;;2.43;;
18265;SDS011;9259;48.194;16.322;2023-02-25T01:56:39;5.30;;;2.40;;
18265;SDS011;9259;48.194;16.322;2023-02-25T01:59:15;5.03;;;2.03;;
18265;SDS011;9259;48.194;16.322;2023-02-25T02:01:44;3.73;;;1.60;;
18265;SDS011;9259;48.194;16.322;2023-02-25T02:04:13;3.23;;;1.73;;
18265;SDS011;9259;48.194;16.322;2023-02-25T02:06:43;7.87;;;1.53;;
18265;SDS011;9259;48.194;16.322;2023-02-25T02:09:15;3.33;;;1.60;;
18265;SDS011;9259;48.194;16.322;2023-02-25T02:11:47;2.67;;;1.13;;
18265;SDS011;9259;48.194;16.322;2023-02-25T02:14:16;2.93;;;1.47;;
18265;SDS011;9259;48.194;16.322;2023-02-25T02:16:59;3.47;;;1.63;;
18265;SDS011;9259;48.194;16.322;2023-02-25T02:19:48;5.27;;;1.73;;
18265;SDS011;9259;48.194;16.322;2023-02-25T02:22:38;3.20;;;1.40;;
18265;SDS011;9259;48.194;16.322;2023-02-25T02:25:28;2.37;;;1.30;;
18265;SDS011;9259;48.194;16.322;2023-02-25T02:28:37;3.17;;;1.17;;
18265;SDS011;9259;48.194;16.322;2023-02-25T02:31:54;1.40;;;1.00;;
18265;SDS011;9259;48.194;16.322;2023-02-25T02:34:34;3.37;;;1.20;;
18265;SDS011;9259;48.194;16.322;2023-02-25T02:37:14;2.50;;;1.20;;
18265;SDS011;9259;48.194;16.322;2023-02-25T02:39:57;4.33;;;1.70;;
18265;SDS011;9259;48.194;16.322;2023-02-25T02:42:39;5.20;;;1.50;;
18265;SDS011;9259;48.194;16.322;2023-02-25T02:45:18;3.50;;;1.50;;
18265;SDS011;9259;48.194;16.322;2023-02-25T02:47:56;3.47;;;1.60;;
18265;SDS011;9259;48.194;16.322;2023-02-25T02:50:30;3.63;;;1.50;;
18265;SDS011;9259;48.194;16.322;2023-02-25T02:53:03;4.27;;;1.40;;
18265;SDS011;9259;48.194;16.322;2023-02-25T02:55:38;4.53;;;2.00;;
18265;SDS011;9259;48.194;16.322;2023-02-25T02:58:10;3.43;;;1.60;;
18265;SDS011;9259;48.194;16.322;2023-02-25T03:00:45;5.13;;;2.10;;
18265;SDS011;9259;48.194;16.322;2023-02-25T03:03:18;5.47;;;1.60;;
18265;SDS011;9259;48.194;16.322;2023-02-25T03:06:01;4.50;;;1.43;;
18265;SDS011;9259;48.194;16.322;2023-02-25T03:08:34;3.83;;;1.70;;
18265;SDS011;9259;48.194;16.322;2023-02-25T03:11:10;2.60;;;1.53;;
18265;SDS011;9259;48.194;16.322;2023-02-25T03:13:39;3.00;;;1.30;;
18265;SDS011;9259;48.194;16.322;2023-02-25T03:16:08;2.47;;;1.20;;
18265;SDS011;9259;48.194;16.322;2023-02-25T03:18:46;2.50;;;1.20;;
18265;SDS011;9259;48.194;16.322;2023-02-25T03:21:20;2.27;;;1.07;;
18265;SDS011;9259;48.194;16.322;2023-02-25T03:24:00;2.50;;;1.13;;
18265;SDS011;9259;48.194;16.322;2023-02-25T03:26:31;2.07;;;1.00;;
18265;SDS011;9259;48.194;16.322;2023-02-25T03:29:01;1.57;;;0.80;;
18265;SDS011;9259;48.194;16.322;2023-02-25T03:31:30;1.50;;;0.90;;
18265;SDS011;9259;48.194;16.322;2023-02-25T03:34:07;1.70;;;1.00;;
18265;SDS011;9259;48.194;16.322;2023-02-25T03:36:40;1.63;;;0.60;;
18265;SDS011;9259;48.194;16.322;2023-02-25T03:39:11;2.13;;;0.83;;
18265;SDS011;9259;48.194;16.322;2023-02-25T03:41:44;1.17;;;0.60;;
18265;SDS011;9259;48.194;16.322;2023-02-25T03:44:18;1.43;;;0.90;;
18265;SDS011;9259;48.194;16.322;2023-02-25T03:46:50;1.40;;;0.57;;
18265;SDS011;9259;48.194;16.322;2023-02-25T03:49:24;0.83;;;0.43;;
18265;SDS011;9259;48.194;16.322;2023-02-25T03:51:56;0.60;;;0.40;;
18265;SDS011;9259;48.194;16.322;2023-02-25T03:54:26;1.97;;;0.40;;
18265;SDS011;9259;48.194;16.322;2023-02-25T03:56:54;2.00;;;0.50;;
18265;SDS011;9259;48.194;16.322;2023-02-25T03:59:22;2.30;;;0.40;;
18265;SDS011;9259;48.194;16.322;2023-02-25T04:01:53;1.17;;;0.53;;
18265;SDS011;9259;48.194;16.322;2023-02-25T04:04:24;0.80;;;0.40;;
18265;SDS011;9259;48.194;16.322;2023-02-25T04:06:52;1.03;;;0.50;;
18265;SDS011;9259;48.194;16.322;2023-02-25T04:09:20;0.70;;;0.50;;
18265;SDS011;9259;48.194;16.322;2023-02-25T04:11:48;1.10;;;0.50;;
18265;SDS011;9259;48.194;16.322;2023-02-25T04:14:21;1.40;;;0.50;;
18265;SDS011;9259;48.194;16.322;2023-02-25T04:16:49;1.00;;;0.50;;
18265;SDS011;9259;48.194;16.322;2023-02-25T04:19:17;0.70;;;0.30;;
18265;SDS011;9259;48.194;16.322;2023-02-25T04:21:47;1.17;;;0.43;;
18265;SDS011;9259;48.194;16.322;2023-02-25T04:24:14;1.03;;;0.30;;
18265;SDS011;9259;48.194;16.322;2023-02-25T04:26:43;0.50;;;0.30;;
18265;SDS011;9259;48.194;16.322;2023-02-25T04:29:11;0.97;;;0.37;;
18265;SDS011;9259;48.194;16.322;2023-02-25T04:31:39;0.80;;;0.20;;
18265;SDS011;9259;48.194;16.322;2023-02-25T04:34:06;1.50;;;0.40;;
18265;SDS011;9259;48.194;16.322;2023-02-25T04:36:34;0.73;;;0.40;;
18265;SDS011;9259;48.194;16.322;2023-02-25T04:39:04;0.50;;;0.40;;
18265;SDS011;9259;48.194;16.322;2023-02-25T04:41:32;3.27;;;0.53;;
18265;SDS011;9259;48.194;16.322;2023-02-25T04:44:02;0.60;;;0.40;;
18265;SDS011;9259;48.194;16.322;2023-02-25T04:46:31;2.00;;;0.40;;
18265;SDS011;9259;48.194;16.322;2023-02-25T04:49:02;0.90;;;0.63;;
18265;SDS011;9259;48.194;16.322;2023-02-25T04:51:31;3.57;;;0.30;;
18265;SDS011;9259;48.194;16.322;2023-02-25T04:53:59;0.87;;;0.20;;
18265;SDS011;9259;48.194;16.322;2023-02-25T04:56:28;2.10;;;0.50;;
18265;SDS011;9259;48.194;16.322;2023-02-25T04:58:56;0.63;;;0.40;;
18265;SDS011;9259;48.194;16.322;2023-02-25T05:01:24;0.60;;;0.33;;
18265;SDS011;9259;48.194;16.322;2023-02-25T05:03:52;0.50;;;0.40;;
18265;SDS011;9259;48.194;16.322;2023-02-25T05:06:21;0.50;;;0.40;;
18265;SDS011;9259;48.194;16.322;2023-02-25T05:08:50;1.00;;;0.30;;
18265;SDS011;9259;48.194;16.322;2023-02-25T05:11:18;0.67;;;0.37;;
18265;SDS011;9259;48.194;16.322;2023-02-25T05:13:48;0.53;;;0.30;;
18265;SDS011;9259;48.194;16.322;2023-02-25T05:16:16;0.97;;;0.57;;
18265;SDS011;9259;48.194;16.322;2023-02-25T05:18:45;0.80;;;0.40;;
18265;SDS011;9259;48.194;16.322;2023-02-25T05:21:15;0.47;;;0.30;;
18265;SDS011;9259;48.194;16.322;2023-02-25T05:23:46;0.20;;;0.20;;
18265;SDS011;9259;48.194;16.322;2023-02-25T05:26:17;2.03;;;0.57;;
18265;SDS011;9259;48.194;16.322;2023-02-25T05:28:49;0.90;;;0.40;;
18265;SDS011;9259;48.194;16.322;2023-02-25T05:31:17;0.60;;;0.40;;
18265;SDS011;9259;48.194;16.322;2023-02-25T05:33:47;0.97;;;0.60;;
18265;SDS011;9259;48.194;16.322;2023-02-25T05:36:15;0.80;;;0.40;;
18265;SDS011;9259;48.194;16.322;2023-02-25T05:38:44;0.87;;;0.40;;
18265;SDS011;9259;48.194;16.322;2023-02-25T05:41:12;0.80;;;0.43;;
18265;SDS011;9259;48.194;16.322;2023-02-25T05:43:41;1.13;;;0.33;;
18265;SDS011;9259;48.194;16.322;2023-02-25T05:46:12;0.77;;;0.40;;
18265;SDS011;9259;48.194;16.322;2023-02-25T05:48:41;0.97;;;0.40;;
18265;SDS011;9259;48.194;16.322;2023-02-25T05:51:12;1.83;;;0.43;;
18265;SDS011;9259;48.194;16.322;2023-02-25T05:53:41;0.70;;;0.40;;
18265;SDS011;9259;48.194;16.322;2023-02-25T05:56:10;0.33;;;0.30;;
18265;SDS011;9259;48.194;16.322;2023-02-25T05:58:39;1.10;;;0.40;;
18265;SDS011;9259;48.194;16.322;2023-02-25T06:01:08;1.10;;;0.40;;
18265;SDS011;9259;48.194;16.322;2023-02-25T06:03:39;0.33;;;0.30;;
18265;SDS011;9259;48.194;16.322;2023-02-25T06:06:08;0.57;;;0.37;;
18265;SDS011;9259;48.194;16.322;2023-02-25T06:08:38;0.40;;;0.37;;
18265;SDS011;9259;48.194;16.322;2023-02-25T06:11:06;1.17;;;0.60;;
18265;SDS011;9259;48.194;16.322;2023-02-25T06:13:35;0.60;;;0.30;;
18265;SDS011;9259;48.194;16.322;2023-02-25T06:16:03;0.67;;;0.40;;
18265;SDS011;9259;48.194;16.322;2023-02-25T06:18:32;0.37;;;0.30;;
18265;SDS011;9259;48.194;16.322;2023-02-25T06:21:03;1.00;;;0.40;;
18265;SDS011;9259;48.194;16.322;2023-02-25T06:23:32;0.50;;;0.37;;
18265;SDS011;9259;48.194;16.322;2023-02-25T06:26:01;0.70;;;0.40;;
18265;SDS011;9259;48.194;16.322;2023-02-25T06:28:29;0.57;;;0.43;;
18265;SDS011;9259;48.194;16.322;2023-02-25T06:30:58;1.83;;;0.60;;
18265;SDS011;9259;48.194;16.322;2023-02-25T06:33:28;0.60;;;0.50;;
18265;SDS011;9259;48.194;16.322;2023-02-25T06:35:56;2.23;;;0.70;;
18265;SDS011;9259;48.194;16.322;2023-02-25T06:38:26;0.80;;;0.50;;
18265;SDS011;9259;48.194;16.322;2023-02-25T06:40:54;2.00;;;0.40;;
18265;SDS011;9259;48.194;16.322;2023-02-25T06:43:22;2.33;;;0.60;;
18265;SDS011;9259;48.194;16.322;2023-02-25T06:45:50;2.13;;;0.43;;
18265;SDS011;9259;48.194;16.322;2023-02-25T06:48:18;0.70;;;0.50;;
18265;SDS011;9259;48.194;16.322;2023-02-25T06:50:47;0.80;;;0.40;;
18265;SDS011;9259;48.194;16.322;2023-02-25T06:53:16;1.67;;;0.93;;
18265;SDS011;9259;48.194;16.322;2023-02-25T06:55:45;0.70;;;0.50;;
18265;SDS011;9259;48.194;16.322;2023-02-25T06:58:13;0.77;;;0.47;;
18265;SDS011;9259;48.194;16.322;2023-02-25T07:00:42;0.80;;;0.40;;
18265;SDS011;9259;48.194;16.322;2023-02-25T07:03:10;1.73;;;0.60;;
18265;SDS011;9259;48.194;16.322;2023-02-25T07:05:39;0.37;;;0.30;;
18265;SDS011;9259;48.194;16.322;2023-02-25T07:08:07;0.60;;;0.40;;
18265;SDS011;9259;48.194;16.322;2023-02-25T07:10:35;0.60;;;0.40;;
18265;SDS011;9259;48.194;16.322;2023-02-25T07:13:06;0.47;;;0.20;;
18265;SDS011;9259;48.194;16.322;2023-02-25T07:15:35;0.40;;;0.30;;
18265;SDS011;9259;48.194;16.322;2023-02-25T07:18:03;3.00;;;0.40;;
18265;SDS011;9259;48.194;16.322;2023-02-25T07:20:32;0.87;;;0.40;;
18265;SDS011;9259;48.194;16.322;2023-02-25T07:23:01;0.70;;;0.60;;
18265;SDS011;9259;48.194;16.322;2023-02-25T07:25:29;0.47;;;0.37;;
18265;SDS011;9259;48.194;16.322;2023-02-25T07:27:57;0.73;;;0.40;;
18265;SDS011;9259;48.194;16.322;2023-02-25T07:30:27;2.70;;;0.20;;
18265;SDS011;9259;48.194;16.322;2023-02-25T07:32:55;0.20;;;0.20;;
18265;SDS011;9259;48.194;16.322;2023-02-25T07:35:23;0.50;;;0.20;;
18265;SDS011;9259;48.194;16.322;2023-02-25T07:37:51;0.50;;;0.30;;
18265;SDS011;9259;48.194;16.322;2023-02-25T07:40:19;0.83;;;0.30;;
18265;SDS011;9259;48.194;16.322;2023-02-25T07:42:47;0.57;;;0.33;;
18265;SDS011;9259;48.194;16.322;2023-02-25T07:45:15;3.20;;;0.30;;
18265;SDS011;9259;48.194;16.322;2023-02-25T07:47:45;3.50;;;0.47;;
18265;SDS011;9259;48.194;16.322;2023-02-25T07:50:13;0.47;;;0.30;;
18265;SDS011;9259;48.194;16.322;2023-02-25T07:52:41;2.40;;;0.40;;
18265;SDS011;9259;48.194;16.322;2023-02-25T07:55:09;1.13;;;0.40;;
18265;SDS011;9259;48.194;16.322;2023-02-25T07:57:38;2.30;;;0.40;;
18265;SDS011;9259;48.194;16.322;2023-02-25T08:00:06;0.77;;;0.50;;
18265;SDS011;9259;48.194;16.322;2023-02-25T08:02:35;0.73;;;0.50;;
18265;SDS011;9259;48.194;16.322;2023-02-25T08:05:05;0.87;;;0.40;;
18265;SDS011;9259;48.194;16.322;2023-02-25T08:07:34;0.50;;;0.30;;
18265;SDS011;9259;48.194;16.322;2023-02-25T08:10:02;1.40;;;0.50;;
18265;SDS011;9259;48.194;16.322;2023-02-25T08:12:31;0.87;;;0.50;;
18265;SDS011;9259;48.194;16.322;2023-02-25T08:14:59;2.13;;;0.70;;
18265;SDS011;9259;48.194;16.322;2023-02-25T08:17:27;2.33;;;0.60;;
18265;SDS011;9259;48.194;16.322;2023-02-25T08:19:57;1.43;;;0.50;;
18265;SDS011;9259;48.194;16.322;2023-02-25T08:22:26;1.13;;;0.60;;
18265;SDS011;9259;48.194;16.322;2023-02-25T08:24:54;1.10;;;0.70;;
18265;SDS011;9259;48.194;16.322;2023-02-25T08:27:23;1.83;;;0.70;;
18265;SDS011;9259;48.194;16.322;2023-02-25T08:29:51;0.53;;;0.50;;
18265;SDS011;9259;48.194;16.322;2023-02-25T08:32:19;1.00;;;0.53;;
18265;SDS011;9259;48.194;16.322;2023-02-25T08:34:49;1.40;;;0.70;;
18265;SDS011;9259;48.194;16.322;2023-02-25T08:37:17;0.77;;;0.50;;
18265;SDS011;9259;48.194;16.322;2023-02-25T08:39:47;1.20;;;0.60;;
18265;SDS011;9259;48.194;16.322;2023-02-25T08:42:15;2.10;;;0.80;;
18265;SDS011;9259;48.194;16.322;2023-02-25T08:44:44;1.10;;;0.80;;
18265;SDS011;9259;48.194;16.322;2023-02-25T08:47:12;0.60;;;0.50;;
18265;SDS011;9259;48.194;16.322;2023-02-25T08:49:41;2.53;;;0.90;;
18265;SDS011;9259;48.194;16.322;2023-02-25T08:52:09;1.00;;;0.70;;
18265;SDS011;9259;48.194;16.322;2023-02-25T08:54:38;1.73;;;0.80;;
18265;SDS011;9259;48.194;16.322;2023-02-25T08:57:08;1.43;;;0.70;;
18265;SDS011;9259;48.194;16.322;2023-02-25T08:59:36;1.10;;;0.70;;
18265;SDS011;9259;48.194;16.322;2023-02-25T09:02:05;2.63;;;0.90;;
18265;SDS011;9259;48.194;16.322;2023-02-25T09:04:39;1.57;;;0.80;;
18265;SDS011;9259;48.194;16.322;2023-02-25T09:07:07;3.23;;;0.80;;
18265;SDS011;9259;48.194;16.322;2023-02-25T09:09:38;2.50;;;1.03;;
18265;SDS011;9259;48.194;16.322;2023-02-25T09:12:06;1.43;;;1.07;;
18265;SDS011;9259;48.194;16.322;2023-02-25T09:14:36;2.60;;;0.77;;
18265;SDS011;9259;48.194;16.322;2023-02-25T09:17:05;4.90;;;1.10;;
18265;SDS011;9259;48.194;16.322;2023-02-25T09:19:33;1.30;;;0.70;;
18265;SDS011;9259;48.194;16.322;2023-02-25T09:22:03;2.17;;;1.10;;
18265;SDS011;9259;48.194;16.322;2023-02-25T09:24:32;2.20;;;1.10;;
18265;SDS011;9259;48.194;16.322;2023-02-25T09:27:00;1.37;;;0.90;;
18265;SDS011;9259;48.194;16.322;2023-02-25T09:29:36;0.90;;;0.70;;
18265;SDS011;9259;48.194;16.322;2023-02-25T09:32:05;2.43;;;1.10;;
18265;SDS011;9259;48.194;16.322;2023-02-25T09:34:34;1.80;;;1.20;;
18265;SDS011;9259;48.194;16.322;2023-02-25T09:37:05;1.70;;;1.00;;
18265;SDS011;9259;48.194;16.322;2023-02-25T09:39:34;1.63;;;1.00;;
18265;SDS011;9259;48.194;16.322;2023-02-25T09:42:05;3.17;;;1.00;;
18265;SDS011;9259;48.194;16.322;2023-02-25T09:44:37;3.73;;;1.13;;
18265;SDS011;9259;48.194;16.322;2023-02-25T09:47:11;2.60;;;1.23;;
18265;SDS011;9259;48.194;16.322;2023-02-25T09:49:45;2.20;;;0.90;;
18265;SDS011;9259;48.194;16.322;2023-02-25T09:52:20;5.00;;;1.07;;
18265;SDS011;9259;48.194;16.322;2023-02-25T09:54:55;2.23;;;1.20;;
18265;SDS011;9259;48.194;16.322;2023-02-25T09:57:28;3.00;;;1.50;;
18265;SDS011;9259;48.194;16.322;2023-02-25T10:00:03;4.03;;;1.30;;
18265;SDS011;9259;48.194;16.322;2023-02-25T10:02:38;2.57;;;1.37;;
18265;SDS011;9259;48.194;16.322;2023-02-25T10:05:16;3.47;;;1.20;;
18265;SDS011;9259;48.194;16.322;2023-02-25T10:07:53;3.40;;;1.00;;
18265;SDS011;9259;48.194;16.322;2023-02-25T10:10:29;3.60;;;1.17;;
18265;SDS011;9259;48.194;16.322;2023-02-25T10:13:05;5.93;;;1.30;;
18265;SDS011;9259;48.194;16.322;2023-02-25T10:15:45;2.67;;;1.20;;
18265;SDS011;9259;48.194;16.322;2023-02-25T10:18:21;2.13;;;0.93;;
18265;SDS011;9259;48.194;16.322;2023-02-25T10:20:59;2.87;;;1.17;;
18265;SDS011;9259;48.194;16.322;2023-02-25T10:23:42;2.70;;;1.17;;
18265;SDS011;9259;48.194;16.322;2023-02-25T10:26:28;4.03;;;1.23;;
18265;SDS011;9259;48.194;16.322;2023-02-25T10:29:03;2.87;;;1.30;;
18265;SDS011;9259;48.194;16.322;2023-02-25T10:31:35;3.50;;;1.17;;
18265;SDS011;9259;48.194;16.322;2023-02-25T10:34:18;4.03;;;1.23;;
18265;SDS011;9259;48.194;16.322;2023-02-25T10:36:51;3.27;;;0.90;;
18265;SDS011;9259;48.194;16.322;2023-02-25T10:39:22;3.50;;;1.20;;
18265;SDS011;9259;48.194;16.322;2023-02-25T10:41:52;2.90;;;1.13;;
18265;SDS011;9259;48.194;16.322;2023-02-25T10:44:21;5.03;;;1.27;;
18265;SDS011;9259;48.194;16.322;2023-02-25T10:46:52;2.63;;;1.10;;
18265;SDS011;9259;48.194;16.322;2023-02-25T10:49:26;3.60;;;1.10;;
18265;SDS011;9259;48.194;16.322;2023-02-25T10:51:55;4.57;;;1.17;;
18265;SDS011;9259;48.194;16.322;2023-02-25T10:54:28;3.00;;;1.17;;
18265;SDS011;9259;48.194;16.322;2023-02-25T10:56:58;3.70;;;1.23;;
18265;SDS011;9259;48.194;16.322;2023-02-25T10:59:29;2.87;;;1.00;;
18265;SDS011;9259;48.194;16.322;2023-02-25T11:01:59;4.30;;;1.10;;
18265;SDS011;9259;48.194;16.322;2023-02-25T11:04:36;4.40;;;0.90;;
18265;SDS011;9259;48.194;16.322;2023-02-25T11:10:13;3.17;;;1.10;;
18265;SDS011;9259;48.194;16.322;2023-02-25T11:12:43;3.93;;;0.90;;
18265;SDS011;9259;48.194;16.322;2023-02-25T11:15:16;2.97;;;1.07;;
18265;SDS011;9259;48.194;16.322;2023-02-25T11:17:57;1.83;;;0.90;;
18265;SDS011;9259;48.194;16.322;2023-02-25T11:20:31;1.90;;;0.80;;
18265;SDS011;9259;48.194;16.322;2023-02-25T11:23:00;3.33;;;0.87;;
18265;SDS011;9259;48.194;16.322;2023-02-25T11:25:31;3.03;;;0.87;;
18265;SDS011;9259;48.194;16.322;2023-02-25T11:28:05;2.30;;;1.00;;
18265;SDS011;9259;48.194;16.322;2023-02-25T11:30:43;4.20;;;1.03;;
18265;SDS011;9259;48.194;16.322;2023-02-25T11:33:17;1.73;;;0.87;;
18265;SDS011;9259;48.194;16.322;2023-02-25T11:35:53;2.83;;;0.83;;
18265;SDS011;9259;48.194;16.322;2023-02-25T11:38:25;6.50;;;0.83;;
18265;SDS011;9259;48.194;16.322;2023-02-25T11:40:55;3.43;;;0.70;;
18265;SDS011;9259;48.194;16.322;2023-02-25T11:43:24;2.57;;;0.90;;
18265;SDS011;9259;48.194;16.322;2023-02-25T11:45:58;2.70;;;0.70;;
18265;SDS011;9259;48.194;16.322;2023-02-25T11:48:33;2.27;;;0.90;;
18265;SDS011;9259;48.194;16.322;2023-02-25T11:51:21;2.43;;;0.90;;
18265;SDS011;9259;48.194;16.322;2023-02-25T11:53:59;2.40;;;0.83;;
18265;SDS011;9259;48.194;16.322;2023-02-25T11:56:48;2.07;;;0.80;;
18265;SDS011;9259;48.194;16.322;2023-02-25T11:59:26;2.60;;;0.80;;
18265;SDS011;9259;48.194;16.322;2023-02-25T12:02:08;2.67;;;0.80;;
18265;SDS011;9259;48.194;16.322;2023-02-25T12:05:07;2.53;;;0.90;;
18265;SDS011;9259;48.194;16.322;2023-02-25T12:07:57;2.60;;;0.70;;
18265;SDS011;9259;48.194;16.322;2023-02-25T12:10:45;1.63;;;0.73;;
18265;SDS011;9259;48.194;16.322;2023-02-25T12:16:54;2.10;;;1.17;;
18265;SDS011;9259;48.194;16.322;2023-02-25T12:23:42;4.03;;;1.10;;
18265;SDS011;9259;48.194;16.322;2023-02-25T12:26:48;2.63;;;0.90;;
18265;SDS011;9259;48.194;16.322;2023-02-25T12:33:21;3.03;;;1.10;;
18265;SDS011;9259;48.194;16.322;2023-02-25T12:36:21;2.57;;;1.07;;
18265;SDS011;9259;48.194;16.322;2023-02-25T12:39:14;4.93;;;1.07;;
18265;SDS011;9259;48.194;16.322;2023-02-25T12:42:06;3.57;;;1.10;;
18265;SDS011;9259;48.194;16.322;2023-02-25T12:44:59;3.03;;;0.70;;
18265;SDS011;9259;48.194;16.322;2023-02-25T12:48:17;2.13;;;0.77;;
18265;SDS011;9259;48.194;16.322;2023-02-25T12:51:22;1.70;;;0.63;;
18265;SDS011;9259;48.194;16.322;2023-02-25T12:54:10;1.63;;;0.60;;
18265;SDS011;9259;48.194;16.322;2023-02-25T12:57:14;2.67;;;1.10;;
18265;SDS011;9259;48.194;16.322;2023-02-25T13:00:02;2.37;;;0.80;;
18265;SDS011;9259;48.194;16.322;2023-02-25T13:03:05;2.60;;;0.80;;
18265;SDS011;9259;48.194;16.322;2023-02-25T13:08:56;2.10;;;0.70;;
18265;SDS011;9259;48.194;16.322;2023-02-25T13:11:57;1.73;;;0.63;;
18265;SDS011;9259;48.194;16.322;2023-02-25T13:14:42;1.97;;;0.80;;
18265;SDS011;9259;48.194;16.322;2023-02-25T13:20:35;4.03;;;1.00;;
18265;SDS011;9259;48.194;16.322;2023-02-25T13:23:21;2.63;;;0.63;;
18265;SDS011;9259;48.194;16.322;2023-02-25T13:26:39;3.60;;;0.70;;
18265;SDS011;9259;48.194;16.322;2023-02-25T13:29:32;2.47;;;0.63;;
18265;SDS011;9259;48.194;16.322;2023-02-25T13:32:17;3.43;;;0.83;;
18265;SDS011;9259;48.194;16.322;2023-02-25T13:35:05;2.00;;;0.73;;
18265;SDS011;9259;48.194;16.322;2023-02-25T13:37:49;2.33;;;0.80;;
18265;SDS011;9259;48.194;16.322;2023-02-25T13:43:42;2.10;;;0.70;;
18265;SDS011;9259;48.194;16.322;2023-02-25T13:46:41;4.03;;;0.60;;
18265;SDS011;9259;48.194;16.322;2023-02-25T13:52:43;2.23;;;0.70;;
18265;SDS011;9259;48.194;16.322;2023-02-25T13:55:23;3.87;;;0.90;;
18265;SDS011;9259;48.194;16.322;2023-02-25T14:07:12;1.77;;;0.57;;
18265;SDS011;9259;48.194;16.322;2023-02-25T14:10:14;3.67;;;0.90;;
18265;SDS011;9259;48.194;16.322;2023-02-25T14:12:50;4.37;;;1.10;;
18265;SDS011;9259;48.194;16.322;2023-02-25T14:15:30;2.43;;;0.97;;
18265;SDS011;9259;48.194;16.322;2023-02-25T14:18:05;1.67;;;0.60;;
18265;SDS011;9259;48.194;16.322;2023-02-25T14:20:54;1.63;;;0.63;;
18265;SDS011;9259;48.194;16.322;2023-02-25T14:23:50;2.37;;;0.50;;
18265;SDS011;9259;48.194;16.322;2023-02-25T14:26:30;2.57;;;0.63;;
18265;SDS011;9259;48.194;16.322;2023-02-25T14:29:06;1.97;;;0.60;;
18265;SDS011;9259;48.194;16.322;2023-02-25T14:31:45;2.33;;;0.90;;
18265;SDS011;9259;48.194;16.322;2023-02-25T14:34:26;5.67;;;1.00;;
18265;SDS011;9259;48.194;16.322;2023-02-25T14:37:07;5.10;;;1.00;;
18265;SDS011;9259;48.194;16.322;2023-02-25T14:39:51;3.13;;;0.73;;
18265;SDS011;9259;48.194;16.322;2023-02-25T14:45:22;3.53;;;0.97;;
18265;SDS011;9259;48.194;16.322;2023-02-25T14:47:55;2.60;;;1.00;;
18265;SDS011;9259;48.194;16.322;2023-02-25T14:50:27;3.67;;;1.00;;
18265;SDS011;9259;48.194;16.322;2023-02-25T14:53:03;3.03;;;0.83;;
18265;SDS011;9259;48.194;16.322;2023-02-25T14:55:49;1.67;;;0.87;;
18265;SDS011;9259;48.194;16.322;2023-02-25T15:01:35;5.00;;;1.27;;
18265;SDS011;9259;48.194;16.322;2023-02-25T15:04:35;3.67;;;1.10;;
18265;SDS011;9259;48.194;16.322;2023-02-25T15:07:52;3.83;;;1.20;;
18265;SDS011;9259;48.194;16.322;2023-02-25T15:10:46;6.23;;;1.30;;
18265;SDS011;9259;48.194;16.322;2023-02-25T15:16:34;6.23;;;1.07;;
18265;SDS011;9259;48.194;16.322;2023-02-25T15:19:19;5.40;;;1.30;;
18265;SDS011;9259;48.194;16.322;2023-02-25T15:22:19;5.60;;;1.30;;
18265;SDS011;9259;48.194;16.322;2023-02-25T15:24:50;5.00;;;1.63;;
18265;SDS011;9259;48.194;16.322;2023-02-25T15:30:16;3.67;;;1.57;;
18265;SDS011;9259;48.194;16.322;2023-02-25T15:32:49;3.67;;;1.40;;
18265;SDS011;9259;48.194;16.322;2023-02-25T15:38:39;7.47;;;1.57;;
18265;SDS011;9259;48.194;16.322;2023-02-25T15:41:35;4.43;;;1.80;;
18265;SDS011;9259;48.194;16.322;2023-02-25T15:44:29;4.13;;;1.20;;
18265;SDS011;9259;48.194;16.322;2023-02-25T15:47:25;4.20;;;1.20;;
18265;SDS011;9259;48.194;16.322;2023-02-25T15:49:55;2.50;;;1.10;;
18265;SDS011;9259;48.194;16.322;2023-02-25T16:03:53;4.00;;;1.60;;
18265;SDS011;9259;48.194;16.322;2023-02-25T16:06:22;5.43;;;1.40;;
18265;SDS011;9259;48.194;16.322;2023-02-25T16:08:53;4.03;;;1.17;;
18265;SDS011;9259;48.194;16.322;2023-02-25T16:11:35;4.53;;;1.20;;
18265;SDS011;9259;48.194;16.322;2023-02-25T16:14:05;3.77;;;1.40;;
18265;SDS011;9259;48.194;16.322;2023-02-25T16:16:41;3.97;;;1.80;;
18265;SDS011;9259;48.194;16.322;2023-02-25T16:19:14;10.37;;;2.57;;
18265;SDS011;9259;48.194;16.322;2023-02-25T16:21:44;7.37;;;2.00;;
18265;SDS011;9259;48.194;16.322;2023-02-25T16:24:15;2.80;;;1.30;;
18265;SDS011;9259;48.194;16.322;2023-02-25T16:26:51;4.63;;;1.50;;
18265;SDS011;9259;48.194;16.322;2023-02-25T16:29:26;8.00;;;2.20;;
18265;SDS011;9259;48.194;16.322;2023-02-25T16:32:11;7.13;;;1.93;;
18265;SDS011;9259;48.194;16.322;2023-02-25T16:34:48;5.23;;;2.17;;